Sycamore, Illinois
Current Conditions -  °F | °C
As of 12:15 PM on Friday 31 Oct 2014 (Local Time) from KDKB Reporting Station
Overcast Overcast  
Wind Chill: 25°   Ceiling: 3600
Heat Index: 37°   Visibility: 10mi
Dew Point: 22°   Wind: 23mph
Humidity: 55%   Direction: 360°N
Pressure: 30.23"   Gusts: 38mph
Location:  41.99°N, 88.68°W
Report Text: KDKB 311715Z AUTO 36020G33KT 10SM OVC036 03/M06 A3023 RMK AO2 T00261056
Loading
Personal Weather Stations






























Interactive Weather Map
Tropical Storm Tracking
New forecast layout! Learn more

10-Day Weather Forecast

Advertisements
Track Severe Weather on mobile